Chapel Hill, Texas
Current Conditions -  °F | °C
As of 8:06 AM on Sunday 23 Nov 2014 (Local Time) from KTYR Reporting Station
Light Rain Light Rain  
Wind Chill: 60°   Ceiling: 200
Heat Index: 60°   Visibility: 1.7mi
Dew Point: 58°   Wind: 10mph
Humidity: 93%   Direction: 210°SSW
Pressure: 29.61"   Gusts: NA
Location:  32.3003°N, 95.1871°W
Report Text: KTYR 231406Z 21009KT 1 3/4SM -RA BR OVC002 16/14 A2961 RMK AO2 RAB03 P0000 T01560144
Loading
Personal Weather Stations






























Interactive Weather Map New forecast layout! Learn more

10-Day Weather Forecast

Advertisements
Track Severe Weather on mobile